Portada
METAR-TAF:

METAR-TAF

Aeropuertos :

Litchfield Municipal Airport

Litchfield, Illinois, Estados Unidos

latitud: 39-09-44N, longitud: 089-40-28W, altitud: 210 m

Observación

El informe se hizo hace 14 minutos, a las 22:55 UTC
Viento 7 kt del norte
Temperatura 26°C
Humedad 54%
Presión 1018 hPa
Visibilidad: 16.1 km
Cielo despejado

METAR: K3LF 012255Z AUTO 36007KT 10SM CLR 26/16 A3006 RMK AO2 T02560164

Hora: 18:09 (23:09 UTC)


TAF: falta

Observaciones y pronósticos meteorológicos de más de 4000 aeropuertos (mensajes METAR y TAF).

Los puntos amarillos y rojos representan las estaciones disponibles.

Ponga el ratón en el punto deseado para ver el nombre de la estación.

Haga clic para ver las observaciones y los pronósticos meteorológicos.

Para cambiar el mapa : haga clic en los botones verdes con una cruz de color negro para hacer un zoom, en el botón verde con un guión para alejar o en las flechas verdes para mapas adyacentes.


METAR-TAF: